sensor_id;sensor_type;location;lat;lon;timestamp;pressure;altitude;pressure_sealevel;temperature;humidity
58622;BME280;44389;51.578;5.456;2022-07-29T00:00:06;101541.38;;;15.89;63.81
58622;BME280;44389;51.578;5.456;2022-07-29T00:02:32;101545.69;;;15.88;63.60
58622;BME280;44389;51.578;5.456;2022-07-29T00:04:58;101541.34;;;15.87;63.76
58622;BME280;44389;51.578;5.456;2022-07-29T00:07:23;101541.31;;;15.86;64.31
58622;BME280;44389;51.578;5.456;2022-07-29T00:09:49;101548.25;;;15.87;63.81
58622;BME280;44389;51.578;5.456;2022-07-29T00:12:14;101543.97;;;15.89;63.82
58622;BME280;44389;51.578;5.456;2022-07-29T00:14:39;101543.13;;;15.90;63.25
58622;BME280;44389;51.578;5.456;2022-07-29T00:17:05;101546.56;;;15.89;64.30
58622;BME280;44389;51.578;5.456;2022-07-29T00:19:30;101548.25;;;15.87;64.77
58622;BME280;44389;51.578;5.456;2022-07-29T00:21:55;101543.91;;;15.84;65.09
58622;BME280;44389;51.578;5.456;2022-07-29T00:24:20;101534.34;;;15.85;64.48
58622;BME280;44389;51.578;5.456;2022-07-29T00:26:46;101532.53;;;15.80;64.98
58622;BME280;44389;51.578;5.456;2022-07-29T00:29:11;101523.81;;;15.78;65.23
58622;BME280;44389;51.578;5.456;2022-07-29T00:31:36;101527.25;;;15.77;65.38
58622;BME280;44389;51.578;5.456;2022-07-29T00:34:01;101527.25;;;15.77;65.33
58622;BME280;44389;51.578;5.456;2022-07-29T00:36:27;101527.25;;;15.77;65.35
58622;BME280;44389;51.578;5.456;2022-07-29T00:38:53;101526.34;;;15.75;65.54
58622;BME280;44389;51.578;5.456;2022-07-29T00:41:18;101526.38;;;15.77;65.48
58622;BME280;44389;51.578;5.456;2022-07-29T00:43:44;101535.03;;;15.76;65.64
58622;BME280;44389;51.578;5.456;2022-07-29T00:46:10;101535.91;;;15.76;65.54
58622;BME280;44389;51.578;5.456;2022-07-29T00:48:35;101536.81;;;15.78;65.58
58622;BME280;44389;51.578;5.456;2022-07-29T00:51:03;101549.97;;;15.86;65.82
58622;BME280;44389;51.578;5.456;2022-07-29T00:53:29;101554.47;;;15.95;64.10
58622;BME280;44389;51.578;5.456;2022-07-29T00:55:54;101564.09;;;15.99;64.96
58622;BME280;44389;51.578;5.456;2022-07-29T00:58:20;101564.94;;;16.00;64.85
58622;BME280;44389;51.578;5.456;2022-07-29T01:00:46;101571.09;;;16.03;64.26
58622;BME280;44389;51.578;5.456;2022-07-29T01:03:11;101583.28;;;16.06;64.24
58622;BME280;44389;51.578;5.456;2022-07-29T01:05:37;101583.28;;;16.07;64.00
58622;BME280;44389;51.578;5.456;2022-07-29T01:08:04;101587.75;;;16.13;63.62
58622;BME280;44389;51.578;5.456;2022-07-29T01:10:30;101568.69;;;16.14;63.14
58622;BME280;44389;51.578;5.456;2022-07-29T01:12:58;101577.38;;;16.15;63.70
58622;BME280;44389;51.578;5.456;2022-07-29T01:15:24;101558.09;;;16.03;65.19
58622;BME280;44389;51.578;5.456;2022-07-29T01:18:14;101553.78;;;16.04;65.21
58622;BME280;44389;51.578;5.456;2022-07-29T01:26:47;101503.66;;;15.67;68.69
58622;BME280;44389;51.578;5.456;2022-07-29T01:29:17;101502.34;;;15.43;71.82
58622;BME280;44389;51.578;5.456;2022-07-29T01:32:11;101510.88;;;15.37;70.72
58622;BME280;44389;51.578;5.456;2022-07-29T01:34:50;101503.59;;;15.21;72.63
58622;BME280;44389;51.578;5.456;2022-07-29T01:37:56;101498.31;;;15.14;71.44
58622;BME280;44389;51.578;5.456;2022-07-29T01:40:45;101490.25;;;15.02;73.13
58622;BME280;44389;51.578;5.456;2022-07-29T01:43:17;101477.75;;;14.84;76.19
58622;BME280;44389;51.578;5.456;2022-07-29T01:45:55;101473.22;;;14.75;75.97
58622;BME280;44389;51.578;5.456;2022-07-29T01:48:26;101460.78;;;14.62;76.33
58622;BME280;44389;51.578;5.456;2022-07-29T01:51:02;101472.84;;;14.60;76.94
58622;BME280;44389;51.578;5.456;2022-07-29T01:53:34;101473.00;;;14.66;77.79
58622;BME280;44389;51.578;5.456;2022-07-29T01:56:02;101469.34;;;14.58;77.15
58622;BME280;44389;51.578;5.456;2022-07-29T01:58:29;101472.56;;;14.47;78.93
58622;BME280;44389;51.578;5.456;2022-07-29T02:00:57;101467.19;;;14.40;79.36
58622;BME280;44389;51.578;5.456;2022-07-29T02:03:23;101461.84;;;14.32;80.23
58622;BME280;44389;51.578;5.456;2022-07-29T02:05:50;101456.50;;;14.26;80.45
58622;BME280;44389;51.578;5.456;2022-07-29T02:08:18;101444.34;;;14.25;80.14
58622;BME280;44389;51.578;5.456;2022-07-29T02:10:45;101452.94;;;14.22;81.22
58622;BME280;44389;51.578;5.456;2022-07-29T02:13:12;101448.59;;;14.21;80.54
58622;BME280;44389;51.578;5.456;2022-07-29T02:15:39;101452.97;;;14.24;80.28
58622;BME280;44389;51.578;5.456;2022-07-29T02:18:14;101453.06;;;14.27;79.67
58622;BME280;44389;51.578;5.456;2022-07-29T02:20:45;101453.97;;;14.29;80.28
58622;BME280;44389;51.578;5.456;2022-07-29T02:23:12;101443.59;;;14.29;80.49
58622;BME280;44389;51.578;5.456;2022-07-29T02:25:41;101449.59;;;14.28;80.48
58622;BME280;44389;51.578;5.456;2022-07-29T02:28:08;101439.19;;;14.25;80.96
58622;BME280;44389;51.578;5.456;2022-07-29T02:30:36;101440.34;;;14.38;79.46
58622;BME280;44389;51.578;5.456;2022-07-29T02:33:05;101448.34;;;14.48;78.49
58622;BME280;44389;51.578;5.456;2022-07-29T02:35:31;101452.03;;;14.57;78.57
58622;BME280;44389;51.578;5.456;2022-07-29T02:37:57;101456.19;;;14.50;78.76
58622;BME280;44389;51.578;5.456;2022-07-29T02:40:41;101465.72;;;14.51;79.30
58622;BME280;44389;51.578;5.456;2022-07-29T02:43:08;101466.75;;;14.58;78.28
58622;BME280;44389;51.578;5.456;2022-07-29T02:45:34;101449.41;;;14.55;78.58
58622;BME280;44389;51.578;5.456;2022-07-29T02:48:05;101450.69;;;14.36;81.06
58622;BME280;44389;51.578;5.456;2022-07-29T02:50:35;101452.06;;;14.22;82.41
58622;BME280;44389;51.578;5.456;2022-07-29T02:53:15;101451.75;;;14.09;83.31
58622;BME280;44389;51.578;5.456;2022-07-29T02:55:49;101450.78;;;14.04;83.10
58622;BME280;44389;51.578;5.456;2022-07-29T03:00:50;101444.56;;;13.97;82.83
58622;BME280;44389;51.578;5.456;2022-07-29T03:03:18;101440.94;;;13.91;82.87
58622;BME280;44389;51.578;5.456;2022-07-29T03:05:44;101443.53;;;13.91;82.64
58622;BME280;44389;51.578;5.456;2022-07-29T03:08:11;101448.63;;;13.88;82.50
58622;BME280;44389;51.578;5.456;2022-07-29T03:10:39;101461.88;;;13.98;82.10
58622;BME280;44389;51.578;5.456;2022-07-29T03:13:05;101460.31;;;14.05;82.14
58622;BME280;44389;51.578;5.456;2022-07-29T03:15:33;101459.38;;;14.03;81.67
58622;BME280;44389;51.578;5.456;2022-07-29T03:17:59;101455.84;;;13.99;82.21
58622;BME280;44389;51.578;5.456;2022-07-29T03:20:25;101461.72;;;13.92;82.79
58622;BME280;44389;51.578;5.456;2022-07-29T03:22:51;101454.75;;;13.91;82.64
58622;BME280;44389;51.578;5.456;2022-07-29T03:25:18;101464.25;;;13.91;81.61
58622;BME280;44389;51.578;5.456;2022-07-29T03:27:45;101472.09;;;13.94;81.74
58622;BME280;44389;51.578;5.456;2022-07-29T03:30:12;101453.91;;;13.91;82.43
58622;BME280;44389;51.578;5.456;2022-07-29T03:32:37;101459.97;;;13.93;82.68
58622;BME280;44389;51.578;5.456;2022-07-29T03:35:04;101461.72;;;13.92;82.59
58622;BME280;44389;51.578;5.456;2022-07-29T03:37:30;101460.84;;;13.92;82.76
58622;BME280;44389;51.578;5.456;2022-07-29T03:39:57;101468.63;;;13.92;82.22
58622;BME280;44389;51.578;5.456;2022-07-29T03:42:24;101479.03;;;13.93;82.36
58622;BME280;44389;51.578;5.456;2022-07-29T03:44:51;101466.88;;;13.92;82.52
58622;BME280;44389;51.578;5.456;2022-07-29T03:47:19;101465.09;;;13.90;83.26
58622;BME280;44389;51.578;5.456;2022-07-29T03:49:47;101459.13;;;13.92;82.58
58622;BME280;44389;51.578;5.456;2022-07-29T03:52:13;101463.44;;;13.92;82.52
58622;BME280;44389;51.578;5.456;2022-07-29T03:54:39;101472.34;;;14.03;82.20
58622;BME280;44389;51.578;5.456;2022-07-29T03:57:05;101468.00;;;14.02;82.03
58622;BME280;44389;51.578;5.456;2022-07-29T03:59:33;101473.19;;;14.02;82.07
58622;BME280;44389;51.578;5.456;2022-07-29T04:02:00;101466.13;;;13.96;82.27
58622;BME280;44389;51.578;5.456;2022-07-29T04:04:26;101448.72;;;13.91;82.80
58622;BME280;44389;51.578;5.456;2022-07-29T04:06:51;101452.06;;;13.87;82.75
58622;BME280;44389;51.578;5.456;2022-07-29T04:09:16;101453.56;;;13.78;83.80
58622;BME280;44389;51.578;5.456;2022-07-29T04:11:42;101456.84;;;13.71;84.67
58622;BME280;44389;51.578;5.456;2022-07-29T04:14:08;101452.41;;;13.67;84.35
58622;BME280;44389;51.578;5.456;2022-07-29T04:16:33;101454.09;;;13.65;84.58
58622;BME280;44389;51.578;5.456;2022-07-29T04:18:59;101456.59;;;13.62;84.92
58622;BME280;44389;51.578;5.456;2022-07-29T04:21:24;101444.50;;;13.61;85.04
58622;BME280;44389;51.578;5.456;2022-07-29T04:23:50;101446.16;;;13.59;85.04
58622;BME280;44389;51.578;5.456;2022-07-29T04:26:19;101456.59;;;13.62;84.57
58622;BME280;44389;51.578;5.456;2022-07-29T04:28:44;101459.34;;;13.68;84.27
58622;BME280;44389;51.578;5.456;2022-07-29T04:31:11;101443.78;;;13.66;84.71
58622;BME280;44389;51.578;5.456;2022-07-29T04:33:36;101454.94;;;13.64;85.34
58622;BME280;44389;51.578;5.456;2022-07-29T04:36:02;101464.50;;;13.66;85.20
58622;BME280;44389;51.578;5.456;2022-07-29T04:38:27;101458.44;;;13.66;85.14
58622;BME280;44389;51.578;5.456;2022-07-29T04:40:52;101465.47;;;13.70;85.34
58622;BME280;44389;51.578;5.456;2022-07-29T04:43:18;101471.53;;;13.72;85.39
58622;BME280;44389;51.578;5.456;2022-07-29T04:45:43;101472.47;;;13.74;85.16
58622;BME280;44389;51.578;5.456;2022-07-29T04:48:09;101481.22;;;13.78;85.44
58622;BME280;44389;51.578;5.456;2022-07-29T04:50:37;101475.13;;;13.77;85.95
58622;BME280;44389;51.578;5.456;2022-07-29T04:53:03;101473.50;;;13.81;85.27
58622;BME280;44389;51.578;5.456;2022-07-29T04:55:28;101473.53;;;13.82;85.55
58622;BME280;44389;51.578;5.456;2022-07-29T04:57:53;101472.72;;;13.83;85.24
58622;BME280;44389;51.578;5.456;2022-07-29T05:00:18;101471.88;;;13.85;85.89
58622;BME280;44389;51.578;5.456;2022-07-29T05:02:44;101469.28;;;13.85;85.91
58622;BME280;44389;51.578;5.456;2022-07-29T05:05:09;101473.63;;;13.86;85.07
58622;BME280;44389;51.578;5.456;2022-07-29T05:07:34;101484.91;;;13.88;84.93
58622;BME280;44389;51.578;5.456;2022-07-29T05:10:00;101498.94;;;13.96;84.79
58622;BME280;44389;51.578;5.456;2022-07-29T05:12:25;101517.19;;;14.00;84.35
58622;BME280;44389;51.578;5.456;2022-07-29T05:14:51;101525.16;;;14.08;84.01
58622;BME280;44389;51.578;5.456;2022-07-29T05:17:16;101517.41;;;14.08;84.50
58622;BME280;44389;51.578;5.456;2022-07-29T05:19:42;101519.13;;;14.08;84.15
58622;BME280;44389;51.578;5.456;2022-07-29T05:22:07;101516.59;;;14.11;84.62
58622;BME280;44389;51.578;5.456;2022-07-29T05:24:32;101512.31;;;14.11;84.58
58622;BME280;44389;51.578;5.456;2022-07-29T05:26:57;101513.25;;;14.15;83.44
58622;BME280;44389;51.578;5.456;2022-07-29T05:29:23;101514.16;;;14.17;83.85
58622;BME280;44389;51.578;5.456;2022-07-29T05:31:48;101515.19;;;14.24;83.76
58622;BME280;44389;51.578;5.456;2022-07-29T05:34:13;101516.94;;;14.25;83.30
58622;BME280;44389;51.578;5.456;2022-07-29T05:36:38;101518.72;;;14.26;83.19
58622;BME280;44389;51.578;5.456;2022-07-29T05:39:04;101515.38;;;14.31;82.54
58622;BME280;44389;51.578;5.456;2022-07-29T05:41:32;101515.41;;;14.33;82.80
58622;BME280;44389;51.578;5.456;2022-07-29T05:43:57;101509.44;;;14.36;83.03
58622;BME280;44389;51.578;5.456;2022-07-29T05:46:23;101512.91;;;14.36;82.49
58622;BME280;44389;51.578;5.456;2022-07-29T05:48:48;101514.75;;;14.40;82.86
58622;BME280;44389;51.578;5.456;2022-07-29T05:51:14;101516.50;;;14.41;82.61
58622;BME280;44389;51.578;5.456;2022-07-29T05:53:39;101520.94;;;14.47;82.59
58622;BME280;44389;51.578;5.456;2022-07-29T05:56:05;101522.91;;;14.56;82.83
58622;BME280;44389;51.578;5.456;2022-07-29T05:58:30;101520.44;;;14.62;82.41
58622;BME280;44389;51.578;5.456;2022-07-29T06:00:56;101517.25;;;14.71;82.44
58622;BME280;44389;51.578;5.456;2022-07-29T06:03:24;101511.31;;;14.76;82.72
58622;BME280;44389;51.578;5.456;2022-07-29T06:05:50;101514.88;;;14.81;82.62
58622;BME280;44389;51.578;5.456;2022-07-29T06:08:15;101509.00;;;14.89;82.38
58622;BME280;44389;51.578;5.456;2022-07-29T06:10:40;101510.81;;;14.93;81.52
58622;BME280;44389;51.578;5.456;2022-07-29T06:13:06;101512.63;;;14.97;81.85
58622;BME280;44389;51.578;5.456;2022-07-29T06:15:31;101518.00;;;15.05;81.56
58622;BME280;44389;51.578;5.456;2022-07-29T06:17:56;101518.94;;;15.08;81.18
58622;BME280;44389;51.578;5.456;2022-07-29T06:20:22;101513.00;;;15.14;80.98
58622;BME280;44389;51.578;5.456;2022-07-29T06:22:47;101518.34;;;15.22;79.90
58622;BME280;44389;51.578;5.456;2022-07-29T06:25:12;101524.50;;;15.27;79.90
58622;BME280;44389;51.578;5.456;2022-07-29T06:27:38;101518.75;;;15.40;80.54
58622;BME280;44389;51.578;5.456;2022-07-29T06:30:03;101523.16;;;15.44;78.92
58622;BME280;44389;51.578;5.456;2022-07-29T06:32:31;101519.63;;;15.42;78.25
58622;BME280;44389;51.578;5.456;2022-07-29T06:34:57;101517.03;;;15.42;78.28
58622;BME280;44389;51.578;5.456;2022-07-29T06:37:22;101512.09;;;15.55;78.94
58622;BME280;44389;51.578;5.456;2022-07-29T06:39:47;101513.13;;;15.64;78.11
58622;BME280;44389;51.578;5.456;2022-07-29T06:42:13;101510.66;;;15.71;77.65
58622;BME280;44389;51.578;5.456;2022-07-29T06:44:38;101507.34;;;15.78;77.17
58622;BME280;44389;51.578;5.456;2022-07-29T06:47:03;101514.53;;;15.90;77.25
58622;BME280;44389;51.578;5.456;2022-07-29T06:49:28;101519.03;;;16.00;76.64
58622;BME280;44389;51.578;5.456;2022-07-29T06:51:54;101529.66;;;16.12;76.80
58622;BME280;44389;51.578;5.456;2022-07-29T06:54:20;101527.19;;;16.20;75.77
58622;BME280;44389;51.578;5.456;2022-07-29T06:56:46;101529.97;;;16.31;75.88
58622;BME280;44389;51.578;5.456;2022-07-29T06:59:12;101525.78;;;16.41;74.50
58622;BME280;44389;51.578;5.456;2022-07-29T07:01:40;101526.72;;;16.44;75.01
58622;BME280;44389;51.578;5.456;2022-07-29T07:04:06;101525.84;;;16.44;75.26
58622;BME280;44389;51.578;5.456;2022-07-29T07:06:31;101524.94;;;16.40;75.12
58622;BME280;44389;51.578;5.456;2022-07-29T07:08:56;101535.28;;;16.37;74.25
58622;BME280;44389;51.578;5.456;2022-07-29T07:11:22;101534.38;;;16.35;74.86
58622;BME280;44389;51.578;5.456;2022-07-29T07:13:47;101543.94;;;16.36;76.08
58622;BME280;44389;51.578;5.456;2022-07-29T07:16:12;101539.44;;;16.27;75.08
58622;BME280;44389;51.578;5.456;2022-07-29T07:18:37;101535.81;;;16.18;75.29
58622;BME280;44389;51.578;5.456;2022-07-29T07:21:03;101540.00;;;16.09;76.94
58622;BME280;44389;51.578;5.456;2022-07-29T07:23:30;101532.84;;;15.96;76.23
58622;BME280;44389;51.578;5.456;2022-07-29T07:25:55;101532.66;;;15.87;76.82
58622;BME280;44389;51.578;5.456;2022-07-29T07:28:20;101534.19;;;15.78;76.83
58622;BME280;44389;51.578;5.456;2022-07-29T07:30:45;101533.38;;;15.79;77.47
58622;BME280;44389;51.578;5.456;2022-07-29T07:33:11;101537.63;;;15.77;77.43
58622;BME280;44389;51.578;5.456;2022-07-29T07:35:36;101537.72;;;15.80;77.66
58622;BME280;44389;51.578;5.456;2022-07-29T07:38:01;101529.19;;;15.86;76.93
58622;BME280;44389;51.578;5.456;2022-07-29T07:40:27;101540.56;;;15.93;76.58
58622;BME280;44389;51.578;5.456;2022-07-29T07:42:52;101539.03;;;16.03;77.56
58622;BME280;44389;51.578;5.456;2022-07-29T07:45:17;101539.97;;;16.06;77.21
58622;BME280;44389;51.578;5.456;2022-07-29T07:47:43;101536.75;;;16.23;76.94
58622;BME280;44389;51.578;5.456;2022-07-29T07:50:10;101536.25;;;16.44;76.35
58622;BME280;44389;51.578;5.456;2022-07-29T07:52:46;101539.16;;;16.64;75.97
58622;BME280;44389;51.578;5.456;2022-07-29T07:55:12;101531.56;;;16.76;75.11
58622;BME280;44389;51.578;5.456;2022-07-29T07:57:38;101542.06;;;16.83;73.56
58622;BME280;44389;51.578;5.456;2022-07-29T08:00:03;101537.13;;;16.98;73.95
58622;BME280;44389;51.578;5.456;2022-07-29T08:02:29;101541.69;;;17.15;72.66
58622;BME280;44389;51.578;5.456;2022-07-29T08:04:54;101551.44;;;17.31;73.07
58622;BME280;44389;51.578;5.456;2022-07-29T08:07:20;101545.63;;;17.51;73.51
58622;BME280;44389;51.578;5.456;2022-07-29T08:09:45;101550.03;;;17.59;70.70
58622;BME280;44389;51.578;5.456;2022-07-29T08:12:10;101549.38;;;17.74;71.13
58622;BME280;44389;51.578;5.456;2022-07-29T08:14:35;101545.16;;;17.86;69.34
58622;BME280;44389;51.578;5.456;2022-07-29T08:17:01;101554.88;;;18.02;69.72
58622;BME280;44389;51.578;5.456;2022-07-29T08:19:26;101549.81;;;18.15;69.18
58622;BME280;44389;51.578;5.456;2022-07-29T08:21:52;101550.84;;;18.32;69.52
58622;BME280;44389;51.578;5.456;2022-07-29T08:24:18;101551.75;;;18.39;66.70
58622;BME280;44389;51.578;5.456;2022-07-29T08:27:02;101550.13;;;18.52;65.95
58622;BME280;44389;51.578;5.456;2022-07-29T08:29:27;101555.34;;;18.55;65.73
58622;BME280;44389;51.578;5.456;2022-07-29T08:31:52;101556.28;;;18.60;65.66
58622;BME280;44389;51.578;5.456;2022-07-29T08:34:18;101560.75;;;18.73;65.37
58622;BME280;44389;51.578;5.456;2022-07-29T08:36:43;101559.13;;;18.92;66.29
58622;BME280;44389;51.578;5.456;2022-07-29T08:39:08;101556.66;;;19.10;65.84
58622;BME280;44389;51.578;5.456;2022-07-29T08:41:34;101555.84;;;19.26;64.28
58622;BME280;44389;51.578;5.456;2022-07-29T08:44:00;101553.28;;;19.40;63.22
58622;BME280;44389;51.578;5.456;2022-07-29T08:46:25;101556.81;;;19.48;62.72
58622;BME280;44389;51.578;5.456;2022-07-29T08:48:50;101562.94;;;19.61;63.30
58622;BME280;44389;51.578;5.456;2022-07-29T08:51:19;101556.88;;;19.71;62.99
58622;BME280;44389;51.578;5.456;2022-07-29T08:53:46;101557.78;;;19.80;61.71
58622;BME280;44389;51.578;5.456;2022-07-29T08:56:14;101557.84;;;19.89;62.66
58622;BME280;44389;51.578;5.456;2022-07-29T08:58:41;101550.03;;;20.03;62.56
58622;BME280;44389;51.578;5.456;2022-07-29T09:01:08;101556.13;;;20.13;63.81
58622;BME280;44389;51.578;5.456;2022-07-29T09:03:35;101552.66;;;20.23;61.61
58622;BME280;44389;51.578;5.456;2022-07-29T09:06:01;101551.78;;;20.49;63.42
58622;BME280;44389;51.578;5.456;2022-07-29T09:08:27;101550.06;;;20.55;61.24
58622;BME280;44389;51.578;5.456;2022-07-29T09:10:54;101552.69;;;20.72;61.16
58622;BME280;44389;51.578;5.456;2022-07-29T09:13:21;101548.28;;;20.95;62.34
58622;BME280;44389;51.578;5.456;2022-07-29T09:15:46;101545.63;;;21.09;58.41
58622;BME280;44389;51.578;5.456;2022-07-29T09:18:11;101543.81;;;21.23;58.51
58622;BME280;44389;51.578;5.456;2022-07-29T09:20:37;101542.00;;;21.44;57.57
58622;BME280;44389;51.578;5.456;2022-07-29T09:23:22;101540.25;;;21.55;57.21
58622;BME280;44389;51.578;5.456;2022-07-29T09:25:48;101543.63;;;21.76;55.88
58622;BME280;44389;51.578;5.456;2022-07-29T09:28:15;101544.38;;;21.92;56.51
58622;BME280;44389;51.578;5.456;2022-07-29T09:30:55;101553.97;;;21.97;55.59
58622;BME280;44389;51.578;5.456;2022-07-29T09:33:21;101555.69;;;22.03;52.91
58622;BME280;44389;51.578;5.456;2022-07-29T09:35:59;101557.44;;;22.06;53.37
58622;BME280;44389;51.578;5.456;2022-07-29T09:38:25;101559.09;;;22.13;53.17
58622;BME280;44389;51.578;5.456;2022-07-29T09:40:57;101561.59;;;22.36;54.50
58622;BME280;44389;51.578;5.456;2022-07-29T09:43:23;101559.69;;;22.58;54.43
58622;BME280;44389;51.578;5.456;2022-07-29T09:45:48;101569.06;;;22.84;54.61
58622;BME280;44389;51.578;5.456;2022-07-29T09:48:19;101571.59;;;22.90;51.67
58622;BME280;44389;51.578;5.456;2022-07-29T09:50:45;101569.41;;;23.34;51.94
58622;BME280;44389;51.578;5.456;2022-07-29T09:53:12;101557.06;;;23.39;49.51
58622;BME280;44389;51.578;5.456;2022-07-29T09:55:51;101563.00;;;23.57;49.72
58622;BME280;44389;51.578;5.456;2022-07-29T09:58:18;101565.53;;;23.61;48.90
58622;BME280;44389;51.578;5.456;2022-07-29T10:00:44;101560.78;;;23.91;48.27
58622;BME280;44389;51.578;5.456;2022-07-29T10:03:10;101558.03;;;23.97;45.71
58622;BME280;44389;51.578;5.456;2022-07-29T10:05:36;101561.84;;;24.36;46.42
58622;BME280;44389;51.578;5.456;2022-07-29T10:08:02;101556.47;;;24.92;47.32
58622;BME280;44389;51.578;5.456;2022-07-29T10:13:01;101558.22;;;25.79;45.40
58622;BME280;44389;51.578;5.456;2022-07-29T10:15:30;101563.44;;;26.56;42.97
58622;BME280;44389;51.578;5.456;2022-07-29T10:17:57;101557.66;;;27.09;41.83
58622;BME280;44389;51.578;5.456;2022-07-29T10:20:24;101552.97;;;27.50;39.78
58622;BME280;44389;51.578;5.456;2022-07-29T10:22:50;101556.44;;;28.09;38.67
58622;BME280;44389;51.578;5.456;2022-07-29T10:25:16;101554.25;;;28.74;36.09
58622;BME280;44389;51.578;5.456;2022-07-29T10:27:43;101552.44;;;29.00;36.10
58622;BME280;44389;51.578;5.456;2022-07-29T10:30:11;101555.31;;;29.88;35.76
58622;BME280;44389;51.578;5.456;2022-07-29T10:32:53;101553.25;;;30.17;35.10
58622;BME280;44389;51.578;5.456;2022-07-29T10:35:47;101559.44;;;30.61;35.15
58622;BME280;44389;51.578;5.456;2022-07-29T10:44:01;101557.50;;;32.36;30.45
58622;BME280;44389;51.578;5.456;2022-07-29T10:46:27;101562.13;;;32.50;29.20
58622;BME280;44389;51.578;5.456;2022-07-29T10:49:08;101556.22;;;32.43;31.00
58622;BME280;44389;51.578;5.456;2022-07-29T10:52:04;101557.28;;;33.41;30.05
58622;BME280;44389;51.578;5.456;2022-07-29T10:59:40;101552.03;;;33.56;26.52
58622;BME280;44389;51.578;5.456;2022-07-29T11:05:14;101551.00;;;33.74;29.04
58622;BME280;44389;51.578;5.456;2022-07-29T11:10:41;101543.91;;;33.89;26.90
58622;BME280;44389;51.578;5.456;2022-07-29T11:13:07;101546.88;;;34.45;25.74
58622;BME280;44389;51.578;5.456;2022-07-29T11:15:52;101542.13;;;34.79;27.73
58622;BME280;44389;51.578;5.456;2022-07-29T11:18:17;101535.97;;;34.49;26.15
58622;BME280;44389;51.578;5.456;2022-07-29T11:20:44;101545.53;;;34.38;26.17
58622;BME280;44389;51.578;5.456;2022-07-29T11:31:42;101540.59;;;34.61;25.52
58622;BME280;44389;51.578;5.456;2022-07-29T11:45:24;101536.22;;;35.87;24.44
58622;BME280;44389;51.578;5.456;2022-07-29T11:47:57;101550.00;;;35.53;23.31
58622;BME280;44389;51.578;5.456;2022-07-29T11:50:37;101542.72;;;35.83;23.66
58622;BME280;44389;51.578;5.456;2022-07-29T11:53:09;101541.63;;;35.31;23.68
58622;BME280;44389;51.578;5.456;2022-07-29T11:55:37;101538.13;;;35.85;23.53
58622;BME280;44389;51.578;5.456;2022-07-29T11:58:03;101536.38;;;35.29;22.54
58622;BME280;44389;51.578;5.456;2022-07-29T12:00:32;101541.34;;;35.50;23.57
58622;BME280;44389;51.578;5.456;2022-07-29T12:02:59;101546.47;;;35.53;22.47
58622;BME280;44389;51.578;5.456;2022-07-29T12:05:37;101544.59;;;35.40;23.75
58622;BME280;44389;51.578;5.456;2022-07-29T12:08:22;101533.69;;;35.43;24.16
58622;BME280;44389;51.578;5.456;2022-07-29T12:10:49;101537.44;;;34.69;23.65
58622;BME280;44389;51.578;5.456;2022-07-29T12:13:17;101544.25;;;35.18;24.88
58622;BME280;44389;51.578;5.456;2022-07-29T12:15:52;101544.66;;;34.97;24.03
58622;BME280;44389;51.578;5.456;2022-07-29T12:18:18;101543.94;;;34.79;23.38
58622;BME280;44389;51.578;5.456;2022-07-29T12:20:46;101540.97;;;34.55;23.85
58622;BME280;44389;51.578;5.456;2022-07-29T12:23:11;101542.25;;;35.63;24.56
58622;BME280;44389;51.578;5.456;2022-07-29T12:25:38;101539.16;;;34.70;23.61
58622;BME280;44389;51.578;5.456;2022-07-29T12:28:06;101539.34;;;33.59;25.39
58622;BME280;44389;51.578;5.456;2022-07-29T12:30:50;101535.19;;;32.55;27.75
58622;BME280;44389;51.578;5.456;2022-07-29T12:33:27;101532.47;;;31.84;27.50
58622;BME280;44389;51.578;5.456;2022-07-29T12:35:58;101533.75;;;32.65;26.55
58622;BME280;44389;51.578;5.456;2022-07-29T12:38:24;101528.50;;;33.46;26.10
58622;BME280;44389;51.578;5.456;2022-07-29T12:40:51;101529.47;;;34.38;25.23
58622;BME280;44389;51.578;5.456;2022-07-29T12:43:19;101536.38;;;34.42;24.18
58622;BME280;44389;51.578;5.456;2022-07-29T12:45:55;101530.84;;;34.74;24.47
58622;BME280;44389;51.578;5.456;2022-07-29T12:48:40;101529.22;;;34.57;24.60
58622;BME280;44389;51.578;5.456;2022-07-29T12:51:06;101530.47;;;34.52;24.37
58622;BME280;44389;51.578;5.456;2022-07-29T12:53:32;101532.56;;;34.75;23.20
58622;BME280;44389;51.578;5.456;2022-07-29T12:55:58;101531.41;;;35.23;23.56
58622;BME280;44389;51.578;5.456;2022-07-29T12:58:41;101527.75;;;35.38;23.77
58622;BME280;44389;51.578;5.456;2022-07-29T13:01:10;101530.06;;;35.44;22.85
58622;BME280;44389;51.578;5.456;2022-07-29T13:03:52;101519.09;;;36.02;23.39
58622;BME280;44389;51.578;5.456;2022-07-29T13:06:41;101523.91;;;36.37;23.16
58622;BME280;44389;51.578;5.456;2022-07-29T13:09:17;101523.84;;;36.12;22.90
58622;BME280;44389;51.578;5.456;2022-07-29T13:11:46;101523.38;;;35.92;22.37
58622;BME280;44389;51.578;5.456;2022-07-29T13:14:14;101515.78;;;35.99;22.45
58622;BME280;44389;51.578;5.456;2022-07-29T13:17:08;101519.63;;;35.67;23.43
58622;BME280;44389;51.578;5.456;2022-07-29T13:19:37;101523.81;;;35.71;23.27
58622;BME280;44389;51.578;5.456;2022-07-29T13:22:05;101519.56;;;36.09;22.38
58622;BME280;44389;51.578;5.456;2022-07-29T13:24:30;101521.72;;;36.17;21.07
58622;BME280;44389;51.578;5.456;2022-07-29T13:26:55;101523.91;;;36.63;22.32
58622;BME280;44389;51.578;5.456;2022-07-29T13:29:21;101528.41;;;36.37;21.74
58622;BME280;44389;51.578;5.456;2022-07-29T13:31:46;101527.66;;;35.67;22.35
58622;BME280;44389;51.578;5.456;2022-07-29T13:34:11;101525.13;;;36.19;22.64
58622;BME280;44389;51.578;5.456;2022-07-29T13:36:36;101519.69;;;36.59;21.64
58622;BME280;44389;51.578;5.456;2022-07-29T13:39:02;101519.38;;;36.77;20.87
58622;BME280;44389;51.578;5.456;2022-07-29T13:41:28;101519.81;;;36.83;21.17